默认 日期 大小 文件数 浏览量 最新下载 xml
gutenberg磁力链接相关资源由用户搜索指令自动获取,结果来源于网络,本站不存储任何资料,亦不承担任何责任,请于24小时内删除,搜索到189个磁力,用时0ms。
    {"free audiobook version.txt": 478, "The Lost Gutenberg by Margaret Leslie Davis.epub": 31264653}
创建时间: 2019-03-20 20:05:31 大小:29.82 MB 文件数量:2 热度:11 最近下载:2025-02-20 15:59:08
    {"点击进入高清MP4ba.url": 171, "本站唯一域名www.mp4ba.la.txt": 50, "更多高清请访问www.mp4ba.la.txt": 27, "无双.Project.Gutenberg.2018.1080p.BluRay.x264-国粤中字-MP4BA.mkv": 4791900886}
创建时间: 2019-03-28 04:31:29 大小:4.46 GB 文件数量:4 热度:19 最近下载:2025-08-01 07:29:06
    ... . Bonus Lecture Digging Deeper into Gutenberg Development.html": 563}, "1. Course ... ": 396, "1. Getting Started with Gutenberg Development.html": 1987}, "[FreeCourseLab.com ... JavaScript Libraries that Ship with Gutenberg.mp4": 17203255, "1. Important JavaScript ...
创建时间: 2019-06-22 19:30:50 大小:1.08 GB 文件数量:45 热度:4 最近下载:2022-04-14 05:55:14
    {"19 - Add block styles.mp4": 14620846, "Udemy Course downloader.txt": 94, "19 - Add block styles.en.srt": 7775, "udemycoursedownloader.com.url": 132, "13 - Sidebar Props scoping.mp4": 11921326, "09 - Anatomy of a basic block.mp4": 22219011, "13 - Sidebar ...
创建时间: 2019-06-29 04:58:18 大小:353.89 MB 文件数量:51 热度:5 最近下载:2025-02-27 11:39:02
    {"BDMV": {"BACKUP": {"CLIPINF": {"00000.clpi": 54432}, "PLAYLIST": {"00000.mpls": 566}, "index.bdmv": 120, "MovieObject.bdmv": 290}, "STREAM": {"00000.m2ts": 33013137408}, "CLIPINF": {"00000.clpi": 54432}, "PLAYLIST": {"00000.mpls": 566}, "index.bdmv": 120 ...
创建时间: 2019-06-30 00:45:34 大小:30.75 GB 文件数量:9 热度:12 最近下载:2025-03-11 19:49:04
    {"Project.Gutenberg.2018.1080p.BluRay.DD+7.1.x264-MGs.mkv": 21120590608, "Project.Gutenberg.2018.1080p.BluRay.DD+7.1.x264-MGs.srt": 96418}
创建时间: 2019-07-03 16:08:37 大小:19.67 GB 文件数量:2 热度:15 最近下载:2025-08-22 20:42:01
    {"Downloaded_from_Nulled.ch.txt": 25, "Gutentype 1.8.2 - 100% Gutenberg WordPress Theme for Modern Blog.rar": 6593506}
创建时间: 2019-08-09 13:11:14 大小:6.29 MB 文件数量:2 热度:3 最近下载:2021-06-17 16:25:58
    {"Projiect.Gutenberg.2018.720p.Blu-ray.DD5.1.x264-PbK.mkv": 4552248007, "Projiect.Gutenberg.2018.720p.Blu-ray.DD5.1.x264-PbK.nfo": 1225}
创建时间: 2019-08-13 18:19:07 大小:4.24 GB 文件数量:2 热度:7 最近下载:2025-07-10 07:04:01
    {"NFO.txt": 1141, "VIDEO_TS": {"VIDEO_TS.BUP": 12288, "VIDEO_TS.IFO": 12288, "VIDEO_TS.VOB": 59392, "VTS_01_0.BUP": 90112, "VTS_01_0.IFO": 90112, "VTS_01_0.VOB": 59392, "VTS_01_1.VOB": 1073709056, "VTS_01_2.VOB": 1073709056, "VTS_01_3.VOB": 1073709056, " ...
创建时间: 2019-08-20 14:59:06 大小:4.33 GB 文件数量:12 热度:5 最近下载:2022-11-12 10:59:40
    {"01.jpg": 93870, "02.jpg": 100021, "03.jpg": 131890, "04.jpg": 133847, "05.jpg": 124202, "06.jpg": 115942, "07.jpg": 125454, "08.jpg": 127605, "09.jpg": 128659, "10.jpg": 146519, "11.jpg": 101506, "12.jpg": 124170, "13.jpg": 399491, "14.jpg": 20901, "15. ...
创建时间: 2019-08-25 21:57:59 大小:2.47 MB 文件数量:22 热度:10 最近下载:2024-05-17 13:10:01
    {"subtitulo.srt": 94367, "alt-torrent.com.mp4": 4001994, "POR FAVOR!.....COMPARTAN!.txt": 125, "Project Gutenberg (2018) BRRIP 1080p LAT - FllorTV.jpg": 87576, "Project Gutenberg (2018) BRRIP 1080p LAT - FllorTV.mkv": 4117181160}
创建时间: 2019-09-28 19:05:23 大小:3.84 GB 文件数量:5 热度:6 最近下载:2024-11-23 07:09:01
    {"logo.png": 329591, "Darmowe torrenty.txt": 4922, "Shadows-Torrents.pl - Darmowe Torrenty.url": 54, "Project Gutenberg - Mo Seung (2018) [480p] [BRRip] [XviD] [AC3] [Napisy PL] [H-1].avi": 2242808218}
创建时间: 2019-09-30 15:20:21 大小:2.09 GB 文件数量:4 热度:8 最近下载:2023-04-22 19:20:19
    {"Kod Adı Ressam - Project Gutenberg (2018) 1080p BluRay x264 - [TR-CH].mkv": 18901375741}
创建时间: 2019-10-02 11:30:38 大小:17.6 GB 文件数量:1 热度:12 最近下载:2024-10-01 07:38:01
    {"TutsGalaxy.com.txt": 53, "Download more courses.url": 123, "Downloaded from TutsGalaxy.com.txt": 73, "Downloaded from Demonoid - www.dnoid.to.txt": 56, "Create Websites with the WordPress Gutenberg Editor 2019.zip": 640633107}
创建时间: 2019-10-04 15:49:21 大小:610.96 MB 文件数量:5 热度:5 最近下载:2025-03-23 14:58:03
    {"Project.Gutenberg.1080p.Latino.mkv": 3677737934, "Elitetorrent - Descargar Torrent sin Limites.url": 129}
创建时间: 2019-10-08 12:15:38 大小:3.43 GB 文件数量:2 热度:7 最近下载:2024-07-02 07:55:02
    {"Project.Gutenberg.HDR.VOSE.avi": 2383000620, "Elitetorrent - Descargar Torrent sin Limites.url": 129}
创建时间: 2019-10-10 17:20:34 大小:2.22 GB 文件数量:2 热度:7 最近下载:2022-11-12 09:52:25
    {"01.jpg": 678346, "02.jpg": 368782, "03.jpg": 299490, "04.jpg": 314776, "05.jpg": 423476, "06.jpg": 486911, "07.jpg": 564798, "08.jpg": 425503, "09.jpg": 431851, "10.jpg": 419737, "11.jpg": 497894, "12.jpg": 403017, "13.jpg": 447299, "14.jpg": 462020, "15 ...
创建时间: 2019-10-12 23:33:36 大小:11.1 MB 文件数量:24 热度:6 最近下载:2022-11-15 19:47:12
    {"Downloaded_from_Nulled.ch.txt": 25, "Gutentype 1.9.0 - 100% Gutenberg WordPress Theme for Modern Blog.rar": 12829235}
创建时间: 2019-11-03 07:35:02 大小:12.23 MB 文件数量:2 热度:3 最近下载:2022-11-12 10:29:16
    {"01.jpg": 527022, "02.jpg": 14437, "03.jpg": 887786, "04.jpg": 847944, "05.jpg": 610000, "06.jpg": 616514, "07.jpg": 645769, "08.jpg": 718067, "09.jpg": 669102, "10.jpg": 579215, "11.jpg": 683680, "12.jpg": 673571, "13.jpg": 598208, "14.jpg": 708761, "15. ...
创建时间: 2019-11-30 18:45:42 大小:16.48 MB 文件数量:28 热度:6 最近下载:2024-12-06 17:14:01
    {"Downloaded_from_Nulled.ch.txt": 25, "GutenMag 1.1.5 - Gutenberg WordPress Theme for Magazine and Blog.rar": 6207562}
创建时间: 2019-12-20 11:43:54 大小:5.92 MB 文件数量:2 热度:4 最近下载:2023-12-28 23:29:04